sensor_id;sensor_type;location;lat;lon;timestamp;P1;durP1;ratioP1;P2;durP2;ratioP2
67090;SDS011;54007;55.818;49.058;2023-02-01T09:59:42;37.48;;;12.58;;
67090;SDS011;54007;55.818;49.058;2023-02-01T10:02:17;31.40;;;10.07;;
67090;SDS011;54007;55.818;49.058;2023-02-01T10:04:42;35.65;;;11.90;;
67090;SDS011;54007;55.818;49.058;2023-02-01T10:17:41;31.33;;;11.57;;
67090;SDS011;54007;55.818;49.058;2023-02-01T10:20:09;35.40;;;12.82;;
67090;SDS011;54007;55.818;49.058;2023-02-01T10:22:46;31.68;;;11.45;;
67090;SDS011;54007;55.818;49.058;2023-02-01T10:25:18;37.10;;;12.55;;
67090;SDS011;54007;55.818;49.058;2023-02-01T10:27:42;35.63;;;12.37;;
67090;SDS011;54007;55.818;49.058;2023-02-01T10:32:43;33.13;;;11.70;;
67090;SDS011;54007;55.818;49.058;2023-02-01T10:35:17;33.58;;;12.30;;
67090;SDS011;54007;55.818;49.058;2023-02-01T10:37:39;31.53;;;11.37;;
67090;SDS011;54007;55.818;49.058;2023-02-01T10:40:17;32.28;;;11.93;;
67090;SDS011;54007;55.818;49.058;2023-02-01T10:42:42;32.88;;;11.78;;
67090;SDS011;54007;55.818;49.058;2023-02-01T10:45:19;34.50;;;12.83;;
67090;SDS011;54007;55.818;49.058;2023-02-01T10:47:34;36.45;;;12.43;;
67090;SDS011;54007;55.818;49.058;2023-02-01T10:57:58;35.95;;;12.85;;
67090;SDS011;54007;55.818;49.058;2023-02-01T11:00:23;29.75;;;10.90;;
67090;SDS011;54007;55.818;49.058;2023-02-01T11:02:53;30.62;;;10.58;;
67090;SDS011;54007;55.818;49.058;2023-02-01T11:05:18;35.00;;;12.07;;
67090;SDS011;54007;55.818;49.058;2023-02-01T11:07:51;40.92;;;15.03;;
67090;SDS011;54007;55.818;49.058;2023-02-01T11:12:58;36.20;;;10.58;;
67090;SDS011;54007;55.818;49.058;2023-02-01T11:15:24;26.60;;;10.00;;
67090;SDS011;54007;55.818;49.058;2023-02-01T11:17:50;26.87;;;9.78;;
67090;SDS011;54007;55.818;49.058;2023-02-01T11:22:56;23.57;;;9.13;;
67090;SDS011;54007;55.818;49.058;2023-02-01T11:25:22;31.62;;;10.93;;
67090;SDS011;54007;55.818;49.058;2023-02-01T11:27:49;32.60;;;10.65;;
67090;SDS011;54007;55.818;49.058;2023-02-01T11:30:17;30.75;;;10.98;;
67090;SDS011;54007;55.818;49.058;2023-02-01T11:32:43;30.60;;;10.65;;
67090;SDS011;54007;55.818;49.058;2023-02-01T11:35:11;28.57;;;10.97;;
67090;SDS011;54007;55.818;49.058;2023-02-01T11:37:39;27.60;;;10.00;;
67090;SDS011;54007;55.818;49.058;2023-02-01T11:40:01;27.07;;;9.75;;
67090;SDS011;54007;55.818;49.058;2023-02-01T11:42:26;25.87;;;9.70;;
67090;SDS011;54007;55.818;49.058;2023-02-01T11:45:07;37.88;;;11.22;;
67090;SDS011;54007;55.818;49.058;2023-02-01T11:49:44;29.02;;;10.43;;
67090;SDS011;54007;55.818;49.058;2023-02-01T11:52:54;30.37;;;10.72;;
67090;SDS011;54007;55.818;49.058;2023-02-01T11:57:08;29.32;;;11.15;;
67090;SDS011;54007;55.818;49.058;2023-02-01T11:59:47;32.30;;;10.55;;
67090;SDS011;54007;55.818;49.058;2023-02-01T12:02:12;35.30;;;11.47;;
67090;SDS011;54007;55.818;49.058;2023-02-01T12:07:11;42.45;;;10.08;;
67090;SDS011;54007;55.818;49.058;2023-02-01T12:09:44;29.37;;;9.23;;
67090;SDS011;54007;55.818;49.058;2023-02-01T12:12:17;28.12;;;9.93;;
67090;SDS011;54007;55.818;49.058;2023-02-01T12:22:18;29.10;;;10.03;;
67090;SDS011;54007;55.818;49.058;2023-02-01T12:27:11;26.00;;;9.23;;
67090;SDS011;54007;55.818;49.058;2023-02-01T12:40:13;30.50;;;11.00;;
67090;SDS011;54007;55.818;49.058;2023-02-01T12:42:32;35.98;;;11.28;;
67090;SDS011;54007;55.818;49.058;2023-02-01T12:44:59;32.75;;;10.30;;
67090;SDS011;54007;55.818;49.058;2023-02-01T12:47:24;29.63;;;10.30;;
67090;SDS011;54007;55.818;49.058;2023-02-01T12:49:50;27.45;;;9.25;;
67090;SDS011;54007;55.818;49.058;2023-02-01T12:52:16;31.52;;;10.82;;
67090;SDS011;54007;55.818;49.058;2023-02-01T12:57:08;39.35;;;13.20;;
67090;SDS011;54007;55.818;49.058;2023-02-01T12:59:36;35.73;;;12.70;;
67090;SDS011;54007;55.818;49.058;2023-02-01T13:04:33;32.60;;;12.05;;
67090;SDS011;54007;55.818;49.058;2023-02-01T13:07:18;33.47;;;12.73;;
67090;SDS011;54007;55.818;49.058;2023-02-01T13:09:25;34.48;;;11.83;;
67090;SDS011;54007;55.818;49.058;2023-02-01T13:11:49;33.38;;;11.97;;
67090;SDS011;54007;55.818;49.058;2023-02-01T13:17:02;38.40;;;11.85;;
67090;SDS011;54007;55.818;49.058;2023-02-01T13:21:50;36.37;;;12.20;;
67090;SDS011;54007;55.818;49.058;2023-02-01T13:24:23;32.40;;;11.65;;
67090;SDS011;54007;55.818;49.058;2023-02-01T13:26:40;34.63;;;11.45;;
67090;SDS011;54007;55.818;49.058;2023-02-01T13:29:06;32.77;;;12.13;;
67090;SDS011;54007;55.818;49.058;2023-02-01T13:31:41;34.95;;;12.28;;
67090;SDS011;54007;55.818;49.058;2023-02-01T13:42:12;32.63;;;11.78;;
67090;SDS011;54007;55.818;49.058;2023-02-01T13:44:38;33.40;;;11.90;;
67090;SDS011;54007;55.818;49.058;2023-02-01T13:47:03;35.90;;;12.20;;
67090;SDS011;54007;55.818;49.058;2023-02-01T13:49:30;31.50;;;12.63;;
67090;SDS011;54007;55.818;49.058;2023-02-01T13:51:55;35.88;;;12.47;;
67090;SDS011;54007;55.818;49.058;2023-02-01T13:56:55;36.17;;;12.60;;
67090;SDS011;54007;55.818;49.058;2023-02-01T14:00:03;34.50;;;12.40;;
67090;SDS011;54007;55.818;49.058;2023-02-01T14:01:49;31.33;;;11.50;;
67090;SDS011;54007;55.818;49.058;2023-02-01T14:06:59;38.50;;;13.65;;
67090;SDS011;54007;55.818;49.058;2023-02-01T14:09:32;37.90;;;13.57;;
67090;SDS011;54007;55.818;49.058;2023-02-01T14:11:57;40.52;;;13.70;;
67090;SDS011;54007;55.818;49.058;2023-02-01T14:19:21;32.48;;;11.60;;
67090;SDS011;54007;55.818;49.058;2023-02-01T14:21:50;35.88;;;11.88;;
67090;SDS011;54007;55.818;49.058;2023-02-01T14:26:42;32.60;;;11.90;;
67090;SDS011;54007;55.818;49.058;2023-02-01T14:31:47;32.03;;;9.75;;
67090;SDS011;54007;55.818;49.058;2023-02-01T14:34:15;30.48;;;11.40;;
67090;SDS011;54007;55.818;49.058;2023-02-01T14:36:48;30.25;;;10.70;;
67090;SDS011;54007;55.818;49.058;2023-02-01T14:39:16;30.13;;;10.97;;
67090;SDS011;54007;55.818;49.058;2023-02-01T14:41:34;34.00;;;10.58;;
67090;SDS011;54007;55.818;49.058;2023-02-01T14:49:12;28.00;;;10.32;;
67090;SDS011;54007;55.818;49.058;2023-02-01T14:51:38;27.50;;;10.70;;
67090;SDS011;54007;55.818;49.058;2023-02-01T14:56:36;25.12;;;9.53;;
67090;SDS011;54007;55.818;49.058;2023-02-01T14:59:09;25.13;;;9.53;;
67090;SDS011;54007;55.818;49.058;2023-02-01T15:01:34;29.10;;;10.10;;
67090;SDS011;54007;55.818;49.058;2023-02-01T15:09:10;26.95;;;9.63;;
67090;SDS011;54007;55.818;49.058;2023-02-01T15:11:54;27.45;;;9.50;;
67090;SDS011;54007;55.818;49.058;2023-02-01T15:14:19;24.70;;;9.00;;
67090;SDS011;54007;55.818;49.058;2023-02-01T15:16:45;26.60;;;9.88;;
67090;SDS011;54007;55.818;49.058;2023-02-01T15:19:12;27.42;;;10.13;;
67090;SDS011;54007;55.818;49.058;2023-02-01T15:21:43;24.77;;;9.97;;
67090;SDS011;54007;55.818;49.058;2023-02-01T15:24:12;31.65;;;10.43;;
67090;SDS011;54007;55.818;49.058;2023-02-01T15:26:34;29.52;;;10.38;;
67090;SDS011;54007;55.818;49.058;2023-02-01T15:29:00;27.02;;;9.60;;
67090;SDS011;54007;55.818;49.058;2023-02-01T15:31:33;29.02;;;9.68;;
67090;SDS011;54007;55.818;49.058;2023-02-01T15:33:58;26.15;;;10.03;;
67090;SDS011;54007;55.818;49.058;2023-02-01T15:36:23;22.58;;;8.60;;
67090;SDS011;54007;55.818;49.058;2023-02-01T15:38:50;25.27;;;8.58;;
67090;SDS011;54007;55.818;49.058;2023-02-01T15:41:19;26.20;;;9.07;;
67090;SDS011;54007;55.818;49.058;2023-02-01T15:46:21;24.15;;;8.20;;
67090;SDS011;54007;55.818;49.058;2023-02-01T15:48:47;26.87;;;9.03;;
67090;SDS011;54007;55.818;49.058;2023-02-01T15:51:13;27.70;;;9.38;;
67090;SDS011;54007;55.818;49.058;2023-02-01T15:53:38;26.75;;;9.38;;
67090;SDS011;54007;55.818;49.058;2023-02-01T15:56:03;27.03;;;9.83;;
67090;SDS011;54007;55.818;49.058;2023-02-01T15:58:29;30.45;;;10.63;;
67090;SDS011;54007;55.818;49.058;2023-02-01T16:00:56;22.63;;;9.27;;
67090;SDS011;54007;55.818;49.058;2023-02-01T16:03:25;21.40;;;8.58;;
67090;SDS011;54007;55.818;49.058;2023-02-01T16:05:54;28.60;;;9.25;;
67090;SDS011;54007;55.818;49.058;2023-02-01T16:08:23;23.87;;;9.17;;
67090;SDS011;54007;55.818;49.058;2023-02-01T16:10:49;22.37;;;8.33;;
67090;SDS011;54007;55.818;49.058;2023-02-01T16:13:19;21.85;;;7.50;;
67090;SDS011;54007;55.818;49.058;2023-02-01T16:15:45;21.70;;;7.57;;
67090;SDS011;54007;55.818;49.058;2023-02-01T16:18:11;20.48;;;7.15;;
67090;SDS011;54007;55.818;49.058;2023-02-01T16:20:37;24.72;;;8.00;;
67090;SDS011;54007;55.818;49.058;2023-02-01T16:23:03;25.85;;;8.15;;
67090;SDS011;54007;55.818;49.058;2023-02-01T16:25:28;21.70;;;8.30;;
67090;SDS011;54007;55.818;49.058;2023-02-01T16:28:00;23.83;;;7.77;;
67090;SDS011;54007;55.818;49.058;2023-02-01T16:30:26;23.73;;;7.58;;
67090;SDS011;54007;55.818;49.058;2023-02-01T16:32:55;21.23;;;8.13;;
67090;SDS011;54007;55.818;49.058;2023-02-01T16:35:22;24.87;;;8.30;;
67090;SDS011;54007;55.818;49.058;2023-02-01T16:37:46;23.77;;;7.75;;
67090;SDS011;54007;55.818;49.058;2023-02-01T16:40:13;18.57;;;6.65;;
67090;SDS011;54007;55.818;49.058;2023-02-01T16:42:38;18.70;;;6.03;;
67090;SDS011;54007;55.818;49.058;2023-02-01T16:45:04;18.48;;;7.10;;
67090;SDS011;54007;55.818;49.058;2023-02-01T16:47:30;16.97;;;5.97;;
67090;SDS011;54007;55.818;49.058;2023-02-01T16:49:56;18.30;;;6.30;;
67090;SDS011;54007;55.818;49.058;2023-02-01T16:52:23;19.90;;;7.08;;
67090;SDS011;54007;55.818;49.058;2023-02-01T16:54:48;18.45;;;6.55;;
67090;SDS011;54007;55.818;49.058;2023-02-01T16:57:15;16.30;;;5.92;;
67090;SDS011;54007;55.818;49.058;2023-02-01T16:59:40;19.62;;;6.15;;
67090;SDS011;54007;55.818;49.058;2023-02-01T17:02:05;17.53;;;6.53;;
67090;SDS011;54007;55.818;49.058;2023-02-01T17:04:31;16.75;;;6.70;;
67090;SDS011;54007;55.818;49.058;2023-02-01T17:06:57;17.23;;;6.17;;
67090;SDS011;54007;55.818;49.058;2023-02-01T17:09:23;18.37;;;6.70;;
67090;SDS011;54007;55.818;49.058;2023-02-01T17:11:49;17.98;;;6.03;;
67090;SDS011;54007;55.818;49.058;2023-02-01T17:14:16;20.80;;;6.50;;
67090;SDS011;54007;55.818;49.058;2023-02-01T17:16:40;20.08;;;6.75;;
67090;SDS011;54007;55.818;49.058;2023-02-01T17:19:08;19.30;;;6.00;;
67090;SDS011;54007;55.818;49.058;2023-02-01T17:21:38;16.60;;;5.95;;
67090;SDS011;54007;55.818;49.058;2023-02-01T17:24:01;19.05;;;7.30;;
67090;SDS011;54007;55.818;49.058;2023-02-01T17:26:31;16.50;;;5.73;;
67090;SDS011;54007;55.818;49.058;2023-02-01T17:28:56;15.80;;;5.15;;
67090;SDS011;54007;55.818;49.058;2023-02-01T17:31:22;14.53;;;4.87;;
67090;SDS011;54007;55.818;49.058;2023-02-01T17:33:48;14.57;;;5.47;;
67090;SDS011;54007;55.818;49.058;2023-02-01T17:36:15;19.27;;;6.28;;
67090;SDS011;54007;55.818;49.058;2023-02-01T17:38:40;15.53;;;6.33;;
67090;SDS011;54007;55.818;49.058;2023-02-01T17:41:06;19.40;;;5.93;;
67090;SDS011;54007;55.818;49.058;2023-02-01T17:43:31;18.50;;;5.80;;
67090;SDS011;54007;55.818;49.058;2023-02-01T17:46:11;19.30;;;6.40;;
67090;SDS011;54007;55.818;49.058;2023-02-01T17:48:35;17.05;;;5.40;;
67090;SDS011;54007;55.818;49.058;2023-02-01T17:51:01;15.80;;;5.97;;
67090;SDS011;54007;55.818;49.058;2023-02-01T17:53:28;17.53;;;5.70;;
67090;SDS011;54007;55.818;49.058;2023-02-01T17:55:53;17.17;;;5.95;;
67090;SDS011;54007;55.818;49.058;2023-02-01T17:58:19;16.30;;;5.28;;
67090;SDS011;54007;55.818;49.058;2023-02-01T18:00:45;15.40;;;5.20;;
67090;SDS011;54007;55.818;49.058;2023-02-01T18:03:27;15.95;;;5.50;;
67090;SDS011;54007;55.818;49.058;2023-02-01T18:05:53;15.30;;;4.87;;
67090;SDS011;54007;55.818;49.058;2023-02-01T18:08:30;16.20;;;6.27;;
67090;SDS011;54007;55.818;49.058;2023-02-01T18:10:59;15.05;;;5.78;;
